Time;durP1;ratioP1;P1;durP2;ratioP2;P2;SDS_P1;SDS_P2;PMS_P1;PMS_P2;Temp;Humidity;BMP_temperature;BMP_pressure;BME280_temperature;BME280_humidity;BME280_pressure;Samples;Min_cycle;Max_cycle;Signal;HPM_P1;HPM_P2
2021/05/07 00:01:04;;;;;;;2.03;1.33;;;7.30;99.90;;;;;;5004082;28;20203;-59
2021/05/07 00:03:30;;;;;;;0.90;0.90;;;7.30;99.90;;;;;;5006190;28;20439;-62
2021/05/07 00:05:56;;;;;;;1.07;0.93;;;7.30;99.90;;;;;;5013336;28;20483;-61
2021/05/07 00:08:42;;;;;;;1.33;1.00;;;7.30;99.90;;;;;;5012914;28;20177;-60
2021/05/07 00:11:17;;;;;;;1.27;1.07;;;7.30;99.90;;;;;;4995230;28;20468;-59
2021/05/07 00:13:44;;;;;;;1.20;1.00;;;7.30;99.90;;;;;;5008504;28;20542;-60
2021/05/07 00:16:10;;;;;;;1.50;1.07;;;7.30;99.90;;;;;;4997927;28;20472;-60
2021/05/07 00:18:38;;;;;;;1.23;1.00;;;7.20;99.90;;;;;;5000902;28;20435;-60
2021/05/07 00:21:05;;;;;;;1.10;1.00;;;7.20;99.90;;;;;;5004872;28;20519;-60
2021/05/07 00:23:31;;;;;;;1.33;0.80;;;7.20;99.90;;;;;;5010991;28;20853;-60
2021/05/07 00:25:58;;;;;;;1.10;0.90;;;7.20;99.90;;;;;;5005059;28;20435;-60
2021/05/07 00:28:24;;;;;;;3.43;0.90;;;7.10;99.90;;;;;;5003588;28;20439;-60
2021/05/07 00:30:50;;;;;;;1.60;1.07;;;7.10;99.90;;;;;;5008793;28;20490;-60
2021/05/07 00:33:16;;;;;;;1.43;0.90;;;7.10;99.90;;;;;;5025270;28;20176;-60
2021/05/07 00:35:42;;;;;;;0.93;0.90;;;7.00;99.90;;;;;;5006354;28;20307;-60
2021/05/07 00:38:08;;;;;;;2.23;1.20;;;7.00;99.90;;;;;;5009237;28;20523;-60
2021/05/07 00:40:34;;;;;;;0.83;0.83;;;6.90;99.90;;;;;;5005761;28;20509;-60
2021/05/07 00:43:00;;;;;;;1.63;1.00;;;6.90;99.90;;;;;;4998287;28;20470;-60
2021/05/07 00:45:27;;;;;;;1.20;1.10;;;6.80;99.90;;;;;;4998366;28;20440;-60
2021/05/07 00:48:01;;;;;;;0.90;0.90;;;6.80;99.90;;;;;;5003882;28;20335;-59
2021/05/07 00:50:28;;;;;;;0.80;0.80;;;6.80;99.90;;;;;;5009936;28;20455;-60
2021/05/07 00:52:55;;;;;;;0.80;0.80;;;6.70;99.90;;;;;;4996215;28;20476;-60
2021/05/07 00:55:21;;;;;;;1.13;1.03;;;6.70;99.90;;;;;;5000823;28;20446;-60
2021/05/07 00:57:47;;;;;;;2.97;1.03;;;6.60;99.90;;;;;;5007060;28;20647;-61
2021/05/07 01:00:14;;;;;;;0.90;0.90;;;6.60;99.90;;;;;;5006198;28;20204;-60
2021/05/07 01:02:39;;;;;;;0.97;0.87;;;6.50;99.90;;;;;;5006401;28;20991;-60
2021/05/07 01:05:06;;;;;;;1.03;0.93;;;6.50;99.90;;;;;;5012247;28;20467;-60
2021/05/07 01:07:33;;;;;;;0.90;0.90;;;6.50;99.90;;;;;;5004266;28;20724;-60
2021/05/07 01:10:00;;;;;;;1.27;0.90;;;6.50;99.90;;;;;;5004753;28;21026;-60
2021/05/07 01:12:29;;;;;;;2.83;1.00;;;6.40;99.90;;;;;;5006427;28;20435;-60
2021/05/07 01:15:17;;;;;;;0.83;0.83;;;6.40;99.90;;;;;;5005897;28;21031;-60
2021/05/07 01:17:44;;;;;;;0.70;0.70;;;6.40;99.90;;;;;;5009254;28;20439;-60
2021/05/07 01:20:17;;;;;;;2.70;0.90;;;6.40;99.90;;;;;;5001845;28;20470;-60
2021/05/07 01:22:46;;;;;;;1.80;0.80;;;6.40;99.90;;;;;;5010064;28;20461;-60
2021/05/07 01:25:14;;;;;;;2.00;1.07;;;6.40;99.90;;;;;;5009860;28;20438;-60
2021/05/07 01:27:41;;;;;;;1.30;1.20;;;6.40;99.90;;;;;;5010330;28;20525;-61
2021/05/07 01:30:09;;;;;;;2.00;0.80;;;6.40;99.90;;;;;;5004100;28;20455;-60
2021/05/07 01:32:37;;;;;;;1.03;0.90;;;6.40;99.90;;;;;;5004781;28;20797;-59
2021/05/07 01:35:14;;;;;;;0.80;0.80;;;6.50;99.90;;;;;;5006978;28;20534;-59
2021/05/07 01:37:41;;;;;;;2.03;1.00;;;6.50;99.90;;;;;;5003943;28;20435;-60
2021/05/07 01:40:15;;;;;;;0.80;0.80;;;6.50;99.90;;;;;;5005098;28;20455;-60
2021/05/07 01:42:40;;;;;;;1.50;1.20;;;6.50;99.90;;;;;;5013920;28;20554;-60
2021/05/07 01:45:07;;;;;;;1.40;1.30;;;6.50;99.90;;;;;;5004170;28;21014;-60
2021/05/07 01:47:33;;;;;;;0.93;0.93;;;6.50;99.90;;;;;;5003785;28;20176;-61
2021/05/07 01:49:59;;;;;;;1.53;1.10;;;6.50;99.90;;;;;;5006479;28;20513;-59
2021/05/07 01:52:25;;;;;;;1.40;1.10;;;6.50;99.90;;;;;;4996749;28;20747;-60
2021/05/07 01:54:50;;;;;;;6.10;1.20;;;6.50;99.90;;;;;;5008098;28;20192;-59
2021/05/07 01:57:16;;;;;;;3.33;1.30;;;6.50;99.90;;;;;;5004864;28;20191;-60
2021/05/07 01:59:42;;;;;;;1.37;1.20;;;6.60;99.90;;;;;;5005604;28;20266;-60
2021/05/07 02:02:08;;;;;;;2.50;1.40;;;6.60;99.90;;;;;;5004980;28;20331;-60
2021/05/07 02:04:33;;;;;;;1.97;1.27;;;6.60;99.90;;;;;;5006833;28;20554;-60
2021/05/07 02:06:59;;;;;;;1.90;1.10;;;6.60;99.90;;;;;;5008376;28;20431;-60
2021/05/07 02:09:24;;;;;;;2.53;1.17;;;6.60;99.90;;;;;;5002339;28;20179;-60
2021/05/07 02:11:50;;;;;;;3.47;1.50;;;6.60;99.90;;;;;;5003649;28;20180;-60
2021/05/07 02:14:16;;;;;;;2.37;1.43;;;6.70;99.90;;;;;;5002626;28;20551;-60
2021/05/07 02:16:41;;;;;;;1.57;1.40;;;6.70;99.90;;;;;;5000898;28;20691;-59
2021/05/07 02:19:08;;;;;;;5.73;1.40;;;6.70;99.90;;;;;;5006644;28;20187;-59
2021/05/07 02:21:35;;;;;;;3.43;1.73;;;6.70;99.90;;;;;;4997150;28;20185;-60
2021/05/07 02:24:01;;;;;;;2.50;1.53;;;6.70;99.90;;;;;;5009747;28;20998;-61
2021/05/07 02:26:26;;;;;;;2.30;1.10;;;6.70;99.90;;;;;;4995962;28;20440;-59
2021/05/07 02:28:52;;;;;;;4.80;1.60;;;6.70;99.90;;;;;;5005960;28;20431;-61
2021/05/07 02:31:18;;;;;;;2.30;1.23;;;6.70;99.90;;;;;;5009281;28;20688;-60
2021/05/07 02:33:44;;;;;;;2.50;1.47;;;6.70;99.90;;;;;;5009676;28;20184;-60
2021/05/07 02:36:09;;;;;;;3.20;1.30;;;6.70;99.90;;;;;;5002114;28;20358;-60
2021/05/07 02:38:37;;;;;;;2.90;1.40;;;6.70;99.90;;;;;;5006670;28;20431;-60
2021/05/07 02:41:03;;;;;;;3.10;1.60;;;6.70;99.90;;;;;;4998468;28;20305;-60
2021/05/07 02:43:29;;;;;;;3.50;1.30;;;6.70;99.90;;;;;;5006526;28;20518;-60
2021/05/07 02:45:55;;;;;;;7.60;1.47;;;6.70;99.90;;;;;;5005609;28;20256;-59
2021/05/07 02:48:21;;;;;;;2.13;1.30;;;6.70;99.90;;;;;;5007178;28;20526;-60
2021/05/07 02:50:46;;;;;;;5.23;1.70;;;6.70;99.90;;;;;;5008836;28;20575;-59
2021/05/07 02:53:12;;;;;;;4.00;1.80;;;6.70;99.90;;;;;;5003464;28;20186;-60
2021/05/07 02:55:38;;;;;;;3.60;1.33;;;6.70;99.90;;;;;;4999699;28;20180;-60
2021/05/07 02:58:04;;;;;;;5.23;1.40;;;6.70;99.90;;;;;;5001493;28;20859;-61
2021/05/07 03:00:30;;;;;;;1.40;1.30;;;6.70;99.90;;;;;;5005940;28;20196;-61
2021/05/07 03:02:55;;;;;;;2.80;1.47;;;6.70;99.90;;;;;;5008108;28;20642;-60
2021/05/07 03:05:21;;;;;;;1.63;1.40;;;6.70;99.90;;;;;;5006310;28;20211;-60
2021/05/07 03:07:47;;;;;;;1.40;1.30;;;6.70;99.90;;;;;;5005729;28;20177;-60
2021/05/07 03:10:13;;;;;;;3.63;1.40;;;6.70;99.90;;;;;;5002253;28;20287;-61
2021/05/07 03:12:38;;;;;;;2.60;1.20;;;6.60;99.90;;;;;;5007670;28;20199;-61
2021/05/07 03:15:06;;;;;;;1.80;1.10;;;6.60;99.90;;;;;;4992019;28;20475;-59
2021/05/07 03:17:31;;;;;;;1.60;1.50;;;6.60;99.90;;;;;;4994934;28;20181;-60
2021/05/07 03:19:57;;;;;;;1.30;1.20;;;6.60;99.90;;;;;;5005415;28;20481;-60
2021/05/07 03:22:23;;;;;;;3.03;1.30;;;6.60;99.90;;;;;;4998156;28;20212;-59
2021/05/07 03:24:49;;;;;;;3.50;1.30;;;6.60;99.90;;;;;;5007390;28;20427;-61
2021/05/07 03:27:14;;;;;;;4.00;1.33;;;6.60;99.90;;;;;;5004244;28;20851;-60
2021/05/07 03:29:40;;;;;;;2.23;1.17;;;6.60;99.90;;;;;;4994453;28;20803;-60
2021/05/07 03:32:06;;;;;;;5.53;2.13;;;6.60;99.90;;;;;;4997870;28;20173;-59
2021/05/07 03:34:32;;;;;;;7.10;1.53;;;6.60;99.90;;;;;;5003036;28;20496;-60
2021/05/07 03:36:58;;;;;;;1.97;1.30;;;6.70;99.90;;;;;;5002995;28;20195;-59
2021/05/07 03:39:23;;;;;;;2.80;1.60;;;6.60;99.90;;;;;;5004846;28;20435;-61
2021/05/07 03:41:49;;;;;;;1.60;1.50;;;6.70;99.90;;;;;;5000018;28;20196;-61
2021/05/07 03:44:15;;;;;;;2.27;1.40;;;6.60;99.90;;;;;;5007385;28;20176;-60
2021/05/07 03:46:40;;;;;;;1.93;1.60;;;6.70;99.90;;;;;;5000449;28;20190;-58
2021/05/07 03:49:06;;;;;;;4.10;1.70;;;6.60;99.90;;;;;;5007866;28;20167;-60
2021/05/07 03:51:31;;;;;;;3.50;2.00;;;6.60;99.90;;;;;;5004658;28;20207;-60
2021/05/07 03:53:57;;;;;;;3.03;2.03;;;6.60;99.90;;;;;;5007675;28;20177;-60
2021/05/07 03:56:23;;;;;;;6.10;1.93;;;6.60;99.90;;;;;;5003506;28;20672;-60
2021/05/07 03:58:48;;;;;;;2.03;1.80;;;6.60;99.90;;;;;;5008187;28;20169;-60
2021/05/07 04:01:14;;;;;;;1.63;1.53;;;6.70;99.90;;;;;;5003283;28;20211;-61
2021/05/07 04:03:40;;;;;;;1.60;1.37;;;6.70;99.90;;;;;;4996160;28;20479;-59
2021/05/07 04:06:08;;;;;;;1.60;1.43;;;6.70;99.90;;;;;;5002269;28;20196;-61
2021/05/07 04:08:39;;;;;;;1.57;1.30;;;6.70;99.90;;;;;;5008369;28;20439;-60
2021/05/07 04:11:49;;;;;;;1.40;1.30;;;6.70;99.90;;;;;;5000723;28;20517;-61
2021/05/07 04:13:56;;;;;;;1.50;1.40;;;6.70;99.90;;;;;;5002942;28;20426;-60
2021/05/07 04:16:22;;;;;;;1.70;1.60;;;6.70;99.90;;;;;;4994649;28;20594;-61
2021/05/07 04:18:48;;;;;;;2.73;1.97;;;6.70;99.90;;;;;;5006070;28;20184;-61
2021/05/07 04:21:13;;;;;;;2.70;1.80;;;6.70;99.90;;;;;;5003999;28;20211;-60
2021/05/07 04:23:39;;;;;;;1.40;1.30;;;6.70;99.90;;;;;;4996683;28;20180;-61
2021/05/07 04:26:05;;;;;;;1.93;1.23;;;6.70;99.90;;;;;;5004229;28;20172;-61
2021/05/07 04:28:31;;;;;;;1.37;1.23;;;6.70;99.90;;;;;;5005606;28;20313;-60
2021/05/07 04:30:57;;;;;;;3.50;1.50;;;6.70;99.90;;;;;;4999146;28;20575;-58
2021/05/07 04:33:22;;;;;;;1.23;0.80;;;6.70;99.90;;;;;;5000661;28;20443;-61
2021/05/07 04:35:48;;;;;;;1.20;1.20;;;6.70;99.90;;;;;;4995474;28;20432;-61
2021/05/07 04:38:14;;;;;;;1.37;1.27;;;6.60;99.90;;;;;;5004134;28;20189;-61
2021/05/07 04:40:40;;;;;;;2.50;1.17;;;6.60;99.90;;;;;;4996315;28;20212;-60
2021/05/07 04:43:06;;;;;;;7.77;1.20;;;6.60;99.90;;;;;;5000297;28;20208;-61
2021/05/07 04:45:32;;;;;;;0.90;0.90;;;6.60;99.90;;;;;;5001316;28;20176;-58
2021/05/07 04:47:59;;;;;;;0.90;0.90;;;6.70;99.90;;;;;;4991801;28;20169;-61
2021/05/07 04:50:25;;;;;;;0.80;0.80;;;6.70;99.90;;;;;;4993045;28;20463;-61
2021/05/07 04:52:50;;;;;;;1.10;1.00;;;6.70;99.90;;;;;;4997520;28;20763;-61
2021/05/07 04:55:16;;;;;;;0.80;0.80;;;6.70;99.90;;;;;;5004144;28;20176;-63
2021/05/07 04:57:42;;;;;;;0.90;0.90;;;6.70;99.90;;;;;;5005087;28;20184;-60
2021/05/07 05:00:08;;;;;;;1.37;1.17;;;6.70;99.90;;;;;;5005474;28;20331;-60
2021/05/07 05:02:34;;;;;;;1.10;0.80;;;6.80;99.90;;;;;;5011254;28;20866;-62
2021/05/07 05:05:04;;;;;;;1.27;0.90;;;6.70;99.90;;;;;;5010946;28;20435;-63
2021/05/07 05:07:30;;;;;;;5.90;1.10;;;6.80;99.90;;;;;;5003956;28;21025;-60
2021/05/07 05:09:56;;;;;;;8.90;2.40;;;6.80;99.90;;;;;;4998303;28;20493;-60
2021/05/07 05:12:21;;;;;;;1.07;0.97;;;6.80;99.90;;;;;;5002853;28;20184;-60
2021/05/07 05:14:47;;;;;;;0.80;0.80;;;6.80;99.90;;;;;;4998269;28;20189;-62
2021/05/07 05:17:13;;;;;;;1.53;1.23;;;6.80;99.90;;;;;;5002607;28;20184;-61
2021/05/07 05:19:38;;;;;;;1.40;1.30;;;6.70;99.90;;;;;;5003920;28;20192;-60
2021/05/07 05:22:04;;;;;;;1.87;1.20;;;6.70;99.90;;;;;;4998943;28;21891;-61
2021/05/07 05:24:29;;;;;;;1.50;1.20;;;6.70;99.90;;;;;;5009610;28;20630;-62
2021/05/07 05:26:56;;;;;;;1.73;1.40;;;6.80;99.90;;;;;;4999872;28;20189;-61
2021/05/07 05:29:22;;;;;;;3.07;1.40;;;6.80;99.90;;;;;;4998460;28;20180;-61
2021/05/07 05:31:47;;;;;;;1.57;1.47;;;6.80;99.90;;;;;;5002649;28;20454;-60
2021/05/07 05:34:13;;;;;;;2.50;1.60;;;6.80;99.90;;;;;;5004257;28;20176;-61
2021/05/07 05:36:45;;;;;;;2.13;1.30;;;6.80;99.90;;;;;;5000716;28;20695;-60
2021/05/07 05:39:12;;;;;;;3.80;1.70;;;6.80;99.90;;;;;;5001770;28;20276;-59
2021/05/07 05:41:37;;;;;;;1.90;1.80;;;6.70;99.90;;;;;;5003857;28;21047;-60
2021/05/07 05:44:03;;;;;;;1.40;1.30;;;6.70;99.90;;;;;;4993004;28;20436;-59
2021/05/07 05:46:29;;;;;;;3.13;1.30;;;6.70;99.90;;;;;;5001520;28;20562;-59
2021/05/07 05:48:54;;;;;;;1.47;1.07;;;6.70;99.90;;;;;;5000296;28;20439;-60
2021/05/07 05:51:20;;;;;;;1.00;0.90;;;6.70;99.90;;;;;;4998443;28;20283;-59
2021/05/07 05:53:46;;;;;;;3.63;1.30;;;6.60;99.90;;;;;;4998758;28;20912;-59
2021/05/07 05:56:13;;;;;;;1.10;1.00;;;6.60;99.90;;;;;;4998847;28;20742;-61
2021/05/07 05:58:38;;;;;;;1.00;0.90;;;6.60;99.90;;;;;;4997546;28;20853;-59
2021/05/07 06:01:04;;;;;;;0.80;0.80;;;6.50;99.90;;;;;;4999866;28;20497;-59
2021/05/07 06:03:30;;;;;;;0.83;0.83;;;6.40;99.90;;;;;;4997486;28;20184;-59
2021/05/07 06:05:55;;;;;;;0.90;0.90;;;6.30;99.90;;;;;;4997461;28;20264;-59
2021/05/07 06:08:22;;;;;;;0.70;0.70;;;6.20;99.90;;;;;;4996758;28;20185;-58
2021/05/07 06:10:48;;;;;;;0.80;0.80;;;6.10;99.90;;;;;;5007929;28;20660;-59
2021/05/07 06:13:13;;;;;;;0.90;0.90;;;6.00;99.90;;;;;;4998988;28;20519;-59
2021/05/07 06:15:39;;;;;;;0.70;0.70;;;5.90;99.90;;;;;;5002439;28;20183;-59
2021/05/07 06:18:05;;;;;;;0.97;0.93;;;5.90;99.90;;;;;;5002200;28;20184;-60
2021/05/07 06:20:31;;;;;;;1.93;0.90;;;5.80;99.90;;;;;;4996879;28;20273;-61
2021/05/07 06:22:57;;;;;;;0.80;0.80;;;5.70;99.90;;;;;;4998540;28;20533;-60
2021/05/07 06:25:24;;;;;;;0.80;0.80;;;5.70;99.90;;;;;;5000232;28;20179;-60
2021/05/07 06:27:50;;;;;;;0.90;0.90;;;5.50;99.90;;;;;;5007625;28;20664;-59
2021/05/07 06:30:16;;;;;;;0.83;0.83;;;5.50;99.90;;;;;;5001731;28;22278;-60
2021/05/07 06:32:42;;;;;;;0.90;0.90;;;5.50;99.90;;;;;;5007260;28;20239;-60
2021/05/07 06:35:08;;;;;;;0.90;0.90;;;5.50;99.90;;;;;;5005561;28;20431;-60
2021/05/07 06:37:34;;;;;;;0.90;0.90;;;5.50;99.90;;;;;;5005723;28;20173;-60
2021/05/07 06:40:00;;;;;;;0.80;0.80;;;5.50;99.90;;;;;;5000640;28;20967;-61
2021/05/07 06:42:26;;;;;;;0.87;0.87;;;5.40;99.90;;;;;;4992099;28;20209;-62
2021/05/07 06:44:52;;;;;;;0.80;0.80;;;5.40;99.90;;;;;;4997034;28;20454;-60
2021/05/07 06:47:18;;;;;;;1.00;1.00;;;5.30;99.90;;;;;;4997465;28;20431;-59
2021/05/07 06:49:44;;;;;;;1.10;0.90;;;5.30;99.90;;;;;;5003589;28;20196;-60
2021/05/07 06:52:09;;;;;;;1.00;1.00;;;5.30;99.90;;;;;;5002535;28;20176;-60
2021/05/07 06:54:35;;;;;;;0.83;0.83;;;5.30;99.90;;;;;;4999148;28;20794;-60
2021/05/07 06:57:01;;;;;;;0.80;0.80;;;5.30;99.90;;;;;;4998285;28;20235;-59
2021/05/07 06:59:28;;;;;;;0.93;0.90;;;5.40;99.90;;;;;;4997189;28;20600;-59
2021/05/07 07:01:54;;;;;;;0.80;0.80;;;5.40;99.90;;;;;;5001498;28;20908;-60
2021/05/07 07:04:20;;;;;;;1.07;0.97;;;5.50;99.90;;;;;;5001927;28;20860;-60
2021/05/07 07:06:46;;;;;;;1.10;1.00;;;5.60;99.90;;;;;;4995796;28;20510;-60
2021/05/07 07:09:12;;;;;;;0.83;0.83;;;5.70;99.90;;;;;;5004668;28;20177;-60
2021/05/07 07:11:38;;;;;;;3.40;1.40;;;5.90;99.90;;;;;;5001284;28;20450;-61
2021/05/07 07:14:05;;;;;;;2.30;1.93;;;6.00;99.90;;;;;;5001706;28;20467;-61
2021/05/07 07:16:33;;;;;;;2.23;2.03;;;6.00;99.90;;;;;;4999780;28;20722;-61
2021/05/07 07:18:59;;;;;;;0.90;0.90;;;6.10;99.90;;;;;;5006517;28;20825;-60
2021/05/07 07:21:24;;;;;;;0.87;0.87;;;6.10;99.90;;;;;;5004600;28;20546;-62
2021/05/07 07:23:50;;;;;;;0.80;0.80;;;6.10;99.90;;;;;;4999798;28;20637;-61
2021/05/07 07:26:16;;;;;;;1.37;1.27;;;6.10;99.90;;;;;;4994594;28;20168;-59
2021/05/07 07:28:43;;;;;;;1.13;0.80;;;6.10;99.90;;;;;;5002567;28;20180;-61
2021/05/07 07:31:09;;;;;;;0.80;0.80;;;6.10;99.90;;;;;;5002954;28;20210;-60
2021/05/07 07:33:35;;;;;;;0.60;0.60;;;6.10;99.90;;;;;;5000669;28;20435;-60
2021/05/07 07:36:00;;;;;;;0.80;0.80;;;6.10;99.90;;;;;;5003357;28;20466;-60
2021/05/07 07:38:26;;;;;;;0.80;0.80;;;6.10;99.90;;;;;;4998534;28;20190;-60
2021/05/07 07:40:52;;;;;;;1.27;1.00;;;6.10;99.90;;;;;;4999936;28;20200;-60
2021/05/07 07:43:20;;;;;;;0.70;0.70;;;6.00;99.90;;;;;;5000318;28;20208;-60
2021/05/07 07:45:47;;;;;;;1.10;1.10;;;5.90;99.90;;;;;;5000994;28;20172;-60
2021/05/07 07:48:14;;;;;;;1.40;1.30;;;5.90;99.90;;;;;;4995635;28;20966;-60
2021/05/07 07:50:40;;;;;;;0.90;0.90;;;5.90;99.90;;;;;;5001371;28;20530;-61
2021/05/07 07:53:06;;;;;;;1.10;1.10;;;5.90;99.90;;;;;;4997156;28;20443;-60
2021/05/07 07:55:31;;;;;;;1.33;1.10;;;6.00;99.90;;;;;;4996376;28;20431;-61
2021/05/07 07:57:57;;;;;;;1.10;1.00;;;6.00;99.90;;;;;;4995048;28;20208;-58
2021/05/07 08:00:23;;;;;;;0.93;0.90;;;6.00;99.90;;;;;;4997108;28;20195;-59
2021/05/07 08:02:49;;;;;;;0.80;0.80;;;6.00;99.90;;;;;;5001587;28;20204;-60
2021/05/07 08:05:15;;;;;;;1.10;1.10;;;6.00;99.90;;;;;;4993566;28;20180;-59
2021/05/07 08:07:41;;;;;;;0.80;0.80;;;6.10;99.90;;;;;;4999572;28;20186;-61
2021/05/07 08:10:08;;;;;;;1.13;1.03;;;6.10;99.90;;;;;;4997982;28;20444;-61
2021/05/07 08:12:34;;;;;;;2.40;0.90;;;6.10;99.90;;;;;;5005212;28;20442;-59
2021/05/07 08:15:00;;;;;;;0.90;0.90;;;6.20;99.90;;;;;;5007241;28;20439;-60
2021/05/07 08:17:25;;;;;;;1.60;1.10;;;6.20;99.90;;;;;;5012351;28;20179;-59
2021/05/07 08:19:51;;;;;;;1.97;1.10;;;6.20;99.90;;;;;;5001617;28;20255;-60
2021/05/07 08:22:17;;;;;;;0.90;0.90;;;6.20;99.90;;;;;;4997760;28;20188;-60
2021/05/07 08:24:43;;;;;;;1.30;1.20;;;6.20;99.90;;;;;;5004842;28;20172;-60
2021/05/07 08:27:09;;;;;;;1.10;1.10;;;6.20;99.90;;;;;;5008424;28;20185;-60
2021/05/07 08:29:34;;;;;;;1.00;1.00;;;6.30;99.90;;;;;;5008598;28;20431;-60
2021/05/07 08:32:00;;;;;;;1.00;1.00;;;6.40;99.90;;;;;;5004583;28;20212;-60
2021/05/07 08:34:26;;;;;;;3.33;1.70;;;6.40;99.90;;;;;;4998338;28;20204;-61
2021/05/07 08:36:52;;;;;;;1.50;1.40;;;6.50;99.90;;;;;;4993023;28;20489;-59
2021/05/07 08:39:19;;;;;;;2.83;1.60;;;6.50;99.90;;;;;;4986185;28;20885;-59
2021/05/07 08:41:47;;;;;;;1.97;1.77;;;6.50;99.90;;;;;;5003372;28;20204;-61
2021/05/07 08:44:13;;;;;;;2.10;1.90;;;6.40;99.90;;;;;;5003028;28;20513;-59
2021/05/07 08:46:41;;;;;;;2.27;2.07;;;6.40;99.90;;;;;;5001376;28;21207;-61
2021/05/07 08:49:11;;;;;;;2.00;1.90;;;6.40;99.90;;;;;;5001829;28;20566;-58
2021/05/07 08:51:39;;;;;;;3.50;2.20;;;6.40;99.90;;;;;;4999008;28;21134;-59
2021/05/07 08:54:07;;;;;;;3.03;2.13;;;6.40;99.90;;;;;;4997097;28;20522;-59
2021/05/07 08:56:35;;;;;;;3.40;2.50;;;6.50;99.90;;;;;;4998252;28;20439;-58
2021/05/07 08:59:00;;;;;;;2.27;2.07;;;6.50;99.90;;;;;;5003022;28;20526;-59
2021/05/07 09:01:44;;;;;;;3.00;2.70;;;6.60;99.90;;;;;;4997393;28;20998;-59
2021/05/07 09:04:15;;;;;;;3.30;2.67;;;6.70;99.90;;;;;;5000485;28;20185;-58
2021/05/07 09:06:51;;;;;;;3.63;2.70;;;6.90;99.90;;;;;;5015117;28;20482;-58
2021/05/07 09:09:27;;;;;;;3.80;2.97;;;7.10;99.90;;;;;;5000301;28;20472;-59
2021/05/07 09:11:55;;;;;;;3.37;3.00;;;7.20;99.90;;;;;;5001186;28;20801;-58
2021/05/07 09:14:22;;;;;;;4.40;3.23;;;7.40;99.90;;;;;;5001207;28;20733;-59
2021/05/07 09:17:06;;;;;;;3.67;3.37;;;7.60;99.90;;;;;;4994038;28;20474;-58
2021/05/07 09:19:37;;;;;;;4.00;3.10;;;7.80;99.90;;;;;;5001669;28;20510;-59
2021/05/07 09:22:03;;;;;;;5.57;3.13;;;8.00;99.90;;;;;;5002126;28;20514;-58
2021/05/07 09:24:38;;;;;;;4.90;3.57;;;8.10;97.80;;;;;;4999726;28;21015;-58
2021/05/07 09:27:07;;;;;;;3.23;2.93;;;8.10;99.20;;;;;;5002529;28;20433;-58
2021/05/07 09:29:36;;;;;;;4.03;3.43;;;8.20;99.70;;;;;;5003397;28;20446;-57
2021/05/07 09:32:03;;;;;;;3.33;3.03;;;8.10;96.20;;;;;;5003590;28;20435;-57
2021/05/07 09:34:37;;;;;;;3.47;2.97;;;8.00;97.00;;;;;;5001258;28;20443;-59
2021/05/07 09:37:22;;;;;;;4.33;3.47;;;7.80;95.50;;;;;;5003279;28;20443;-59
2021/05/07 09:39:47;;;;;;;3.90;3.30;;;7.60;96.40;;;;;;5021803;28;20446;-59
2021/05/07 09:42:24;;;;;;;5.40;3.30;;;7.40;98.00;;;;;;5017714;28;20927;-62
2021/05/07 09:44:50;;;;;;;3.73;2.90;;;7.30;99.30;;;;;;5019477;28;20180;-59
2021/05/07 09:47:16;;;;;;;3.60;3.00;;;7.30;99.90;;;;;;5020764;28;20411;-60
2021/05/07 09:49:42;;;;;;;4.10;3.10;;;7.40;99.90;;;;;;5023037;28;20209;-60
2021/05/07 09:52:08;;;;;;;5.80;3.17;;;7.40;98.30;;;;;;5022083;28;20446;-60
2021/05/07 09:54:34;;;;;;;4.70;3.90;;;7.40;98.70;;;;;;5043739;23;20238;-62
2021/05/07 09:57:01;;;;;;;4.03;3.30;;;7.40;98.20;;;;;;5023515;28;20548;-62
2021/05/07 09:59:29;;;;;;;3.90;3.40;;;7.50;96.70;;;;;;5021000;28;22429;-60
2021/05/07 10:01:55;;;;;;;4.90;3.50;;;7.40;96.30;;;;;;5020275;28;20520;-60
2021/05/07 10:04:21;;;;;;;5.50;3.37;;;7.50;97.00;;;;;;5017195;28;20454;-59
2021/05/07 10:06:47;;;;;;;4.37;3.10;;;7.60;97.50;;;;;;5020098;28;20182;-62
2021/05/07 10:09:25;;;;;;;3.70;3.10;;;7.60;96.70;;;;;;5021813;28;20179;-61
2021/05/07 10:11:53;;;;;;;4.00;3.60;;;7.50;95.70;;;;;;5025717;28;20175;-62
2021/05/07 10:14:20;;;;;;;5.30;3.63;;;7.50;94.40;;;;;;5022389;28;20458;-61
2021/05/07 10:16:46;;;;;;;6.37;3.10;;;7.50;95.60;;;;;;5022346;28;20430;-59
2021/05/07 10:19:13;;;;;;;3.23;2.93;;;7.70;94.80;;;;;;5019670;28;20422;-59
2021/05/07 10:21:47;;;;;;;5.37;3.30;;;7.80;95.20;;;;;;5021796;28;20215;-61
2021/05/07 10:24:18;;;;;;;4.20;3.30;;;8.00;95.60;;;;;;5020853;28;20450;-61
2021/05/07 10:26:48;;;;;;;4.03;3.63;;;8.10;95.80;;;;;;5014814;28;20531;-62
2021/05/07 10:29:24;;;;;;;5.87;3.20;;;8.20;96.30;;;;;;5025234;28;20437;-64
2021/05/07 10:31:54;;;;;;;3.80;3.37;;;8.50;94.50;;;;;;5019664;28;20457;-60
2021/05/07 10:34:21;;;;;;;5.40;3.70;;;8.60;92.80;;;;;;5018034;28;20520;-61
2021/05/07 10:36:49;;;;;;;7.37;3.40;;;8.90;91.00;;;;;;5031253;28;20418;-63
2021/05/07 10:39:26;;;;;;;6.53;3.13;;;9.20;89.20;;;;;;5028907;28;20909;-62
2021/05/07 10:41:54;;;;;;;7.10;3.00;;;9.20;82.10;;;;;;5010682;28;20758;-61
2021/05/07 10:44:22;;;;;;;3.10;2.80;;;9.40;88.90;;;;;;5017843;28;20836;-61
2021/05/07 10:47:07;;;;;;;3.43;2.57;;;9.50;85.10;;;;;;5021847;28;20450;-58
2021/05/07 10:49:38;;;;;;;6.17;3.13;;;9.40;73.20;;;;;;5017649;28;20759;-62
2021/05/07 10:52:08;;;;;;;4.13;2.80;;;9.40;81.10;;;;;;5014568;28;21041;-60
2021/05/07 10:54:41;;;;;;;4.60;2.70;;;9.60;76.00;;;;;;5017910;28;20997;-62
2021/05/07 10:57:26;;;;;;;3.13;2.67;;;9.70;72.80;;;;;;5018168;28;21090;-63
2021/05/07 10:59:54;;;;;;;3.37;3.07;;;10.00;74.80;;;;;;5017312;28;20442;-62
2021/05/07 11:02:20;;;;;;;2.70;2.50;;;10.40;67.20;;;;;;5021024;28;20466;-63
2021/05/07 11:04:47;;;;;;;3.20;2.90;;;10.60;58.20;;;;;;5029023;28;20458;-64
2021/05/07 11:07:24;;;;;;;4.60;2.60;;;10.60;56.70;;;;;;5020770;28;20172;-63
2021/05/07 11:10:12;;;;;;;4.37;2.63;;;10.50;59.80;;;;;;5021533;28;20441;-61
2021/05/07 11:12:42;;;;;;;2.50;2.30;;;10.50;59.90;;;;;;5019928;28;20442;-63
2021/05/07 11:15:16;;;;;;;6.50;3.17;;;10.30;63.50;;;;;;5017665;28;20620;-64
2021/05/07 11:17:42;;;;;;;3.60;2.60;;;10.00;62.40;;;;;;5017081;28;20512;-64
2021/05/07 11:20:09;;;;;;;2.60;2.40;;;9.80;60.20;;;;;;5014029;28;20951;-63
2021/05/07 11:22:35;;;;;;;5.70;3.30;;;9.70;66.50;;;;;;5026494;28;20975;-63
2021/05/07 11:25:02;;;;;;;3.00;2.03;;;9.70;60.30;;;;;;5022927;28;21382;-65
2021/05/07 11:27:29;;;;;;;4.03;2.77;;;9.80;60.50;;;;;;5018347;28;20438;-60
2021/05/07 11:30:04;;;;;;;2.57;2.37;;;10.00;60.90;;;;;;5017188;28;20437;-61
2021/05/07 11:32:32;;;;;;;2.80;2.60;;;10.20;62.30;;;;;;5020000;28;20436;-62
2021/05/07 11:34:59;;;;;;;4.63;2.70;;;10.10;59.10;;;;;;5029948;28;20598;-61
2021/05/07 11:37:26;;;;;;;4.70;2.60;;;10.20;61.20;;;;;;5017274;28;20459;-62
2021/05/07 11:40:00;;;;;;;2.70;2.20;;;10.50;58.50;;;;;;5020486;28;20434;-61
2021/05/07 11:42:33;;;;;;;2.73;2.37;;;10.60;58.50;;;;;;5029875;28;20489;-61
2021/05/07 11:45:00;;;;;;;3.20;2.10;;;10.90;54.90;;;;;;5023601;28;20449;-59
2021/05/07 11:47:30;;;;;;;4.73;3.27;;;11.10;53.90;;;;;;5031027;28;20417;-61
2021/05/07 11:49:56;;;;;;;15.63;3.90;;;11.10;51.10;;;;;;5033659;28;20426;-62
2021/05/07 11:52:36;;;;;;;2.40;2.20;;;11.40;52.40;;;;;;5033189;28;20736;-60
2021/05/07 11:55:07;;;;;;;2.67;2.47;;;11.80;51.50;;;;;;5032594;28;20241;-60
2021/05/07 11:57:33;;;;;;;3.53;2.23;;;12.10;52.80;;;;;;5035602;28;20437;-62
2021/05/07 12:00:01;;;;;;;4.67;2.50;;;12.50;49.20;;;;;;5033258;28;20430;-58
2021/05/07 12:02:29;;;;;;;2.60;1.90;;;12.50;44.60;;;;;;5030514;28;20497;-55
2021/05/07 12:04:55;;;;;;;2.40;1.97;;;12.70;46.30;;;;;;5020340;28;20573;-60
2021/05/07 12:07:22;;;;;;;3.10;2.37;;;12.90;47.40;;;;;;5014255;28;20772;-55
2021/05/07 12:09:49;;;;;;;3.40;2.10;;;12.90;45.00;;;;;;5016578;28;20512;-56
2021/05/07 12:12:14;;;;;;;3.30;2.00;;;12.90;44.40;;;;;;5010396;28;20453;-56
2021/05/07 12:14:50;;;;;;;2.87;2.40;;;13.10;44.50;;;;;;5008308;28;20453;-57
2021/05/07 12:17:19;;;;;;;3.17;2.07;;;13.20;44.90;;;;;;5018326;28;20484;-58
2021/05/07 12:20:02;;;;;;;3.67;2.30;;;13.50;43.20;;;;;;5015298;28;20438;-54
2021/05/07 12:22:28;;;;;;;3.10;2.43;;;13.60;40.10;;;;;;5014871;28;20465;-54
2021/05/07 12:24:53;;;;;;;4.17;2.23;;;13.50;39.90;;;;;;5024043;28;20469;-51
2021/05/07 12:27:27;;;;;;;2.90;2.40;;;13.30;40.20;;;;;;5026210;28;20595;-57
2021/05/07 12:29:52;;;;;;;4.87;2.33;;;13.30;40.40;;;;;;5017286;28;20207;-58
2021/05/07 12:32:22;;;;;;;3.67;2.80;;;13.30;41.30;;;;;;5020024;28;20489;-58
2021/05/07 12:34:56;;;;;;;4.70;2.93;;;13.60;40.00;;;;;;5015595;28;20196;-58
2021/05/07 12:37:22;;;;;;;2.80;2.60;;;13.60;39.70;;;;;;5027972;28;20498;-55
2021/05/07 12:39:48;;;;;;;4.30;2.50;;;13.70;38.70;;;;;;5023155;28;20437;-59
2021/05/07 12:42:13;;;;;;;2.80;2.60;;;13.80;37.50;;;;;;5024462;28;20211;-61
2021/05/07 12:44:39;;;;;;;3.67;2.53;;;13.90;37.10;;;;;;5023266;28;20195;-61
2021/05/07 12:47:05;;;;;;;2.57;2.37;;;14.00;39.20;;;;;;5018575;28;20601;-60
2021/05/07 12:49:30;;;;;;;4.80;2.97;;;14.20;38.80;;;;;;5019559;28;20180;-61
2021/05/07 12:52:00;;;;;;;7.40;2.80;;;13.90;37.30;;;;;;5027685;28;20186;-58
2021/05/07 12:54:26;;;;;;;3.07;2.77;;;14.00;39.10;;;;;;5028545;28;20748;-59
2021/05/07 12:56:52;;;;;;;2.70;2.50;;;14.20;40.00;;;;;;5027367;28;20446;-62